sensor_id;sensor_type;location;lat;lon;timestamp;P1;durP1;ratioP1;P2;durP2;ratioP2
2019;SDS011;1014;51.960;8.542;2022-09-25T00:01:00;44.57;;;40.20;;
2019;SDS011;1014;51.960;8.542;2022-09-25T00:03:28;45.93;;;41.40;;
2019;SDS011;1014;51.960;8.542;2022-09-25T00:05:59;46.17;;;41.83;;
2019;SDS011;1014;51.960;8.542;2022-09-25T00:08:27;41.10;;;37.30;;
2019;SDS011;1014;51.960;8.542;2022-09-25T00:10:55;42.37;;;38.53;;
2019;SDS011;1014;51.960;8.542;2022-09-25T00:13:24;46.63;;;40.07;;
2019;SDS011;1014;51.960;8.542;2022-09-25T00:15:52;42.67;;;38.70;;
2019;SDS011;1014;51.960;8.542;2022-09-25T00:18:20;43.97;;;40.00;;
2019;SDS011;1014;51.960;8.542;2022-09-25T00:21:08;41.17;;;37.20;;
2019;SDS011;1014;51.960;8.542;2022-09-25T00:23:36;41.80;;;37.80;;
2019;SDS011;1014;51.960;8.542;2022-09-25T00:26:04;40.27;;;36.57;;
2019;SDS011;1014;51.960;8.542;2022-09-25T00:28:33;38.07;;;34.80;;
2019;SDS011;1014;51.960;8.542;2022-09-25T00:31:01;36.73;;;33.10;;
2019;SDS011;1014;51.960;8.542;2022-09-25T00:33:29;38.70;;;35.10;;
2019;SDS011;1014;51.960;8.542;2022-09-25T00:35:59;38.70;;;35.00;;
2019;SDS011;1014;51.960;8.542;2022-09-25T00:38:29;35.10;;;32.40;;
2019;SDS011;1014;51.960;8.542;2022-09-25T00:40:56;34.97;;;31.97;;
2019;SDS011;1014;51.960;8.542;2022-09-25T00:43:36;36.53;;;33.37;;
2019;SDS011;1014;51.960;8.542;2022-09-25T00:46:04;37.10;;;34.10;;
2019;SDS011;1014;51.960;8.542;2022-09-25T00:48:33;34.27;;;31.53;;
2019;SDS011;1014;51.960;8.542;2022-09-25T00:51:00;36.10;;;32.60;;
2019;SDS011;1014;51.960;8.542;2022-09-25T00:53:28;34.17;;;31.10;;
2019;SDS011;1014;51.960;8.542;2022-09-25T00:55:57;33.07;;;30.37;;
2019;SDS011;1014;51.960;8.542;2022-09-25T00:58:25;33.37;;;30.13;;
2019;SDS011;1014;51.960;8.542;2022-09-25T01:00:55;33.60;;;30.10;;
2019;SDS011;1014;51.960;8.542;2022-09-25T01:03:23;30.80;;;28.53;;
2019;SDS011;1014;51.960;8.542;2022-09-25T01:05:51;32.63;;;29.43;;
2019;SDS011;1014;51.960;8.542;2022-09-25T01:08:20;33.13;;;29.60;;
2019;SDS011;1014;51.960;8.542;2022-09-25T01:10:48;32.27;;;29.77;;
2019;SDS011;1014;51.960;8.542;2022-09-25T01:13:15;29.20;;;26.87;;
2019;SDS011;1014;51.960;8.542;2022-09-25T01:15:45;29.90;;;27.37;;
2019;SDS011;1014;51.960;8.542;2022-09-25T01:18:19;31.50;;;29.00;;
2019;SDS011;1014;51.960;8.542;2022-09-25T01:20:53;31.60;;;28.73;;
2019;SDS011;1014;51.960;8.542;2022-09-25T01:23:29;32.07;;;29.43;;
2019;SDS011;1014;51.960;8.542;2022-09-25T01:26:05;31.50;;;28.90;;
2019;SDS011;1014;51.960;8.542;2022-09-25T01:28:51;31.60;;;29.37;;
2019;SDS011;1014;51.960;8.542;2022-09-25T01:31:20;30.10;;;27.20;;
2019;SDS011;1014;51.960;8.542;2022-09-25T01:33:53;29.50;;;27.00;;
2019;SDS011;1014;51.960;8.542;2022-09-25T01:36:23;30.53;;;28.00;;
2019;SDS011;1014;51.960;8.542;2022-09-25T01:38:52;32.47;;;29.87;;
2019;SDS011;1014;51.960;8.542;2022-09-25T01:41:21;31.17;;;27.97;;
2019;SDS011;1014;51.960;8.542;2022-09-25T01:43:52;30.97;;;27.97;;
2019;SDS011;1014;51.960;8.542;2022-09-25T01:46:22;28.80;;;26.63;;
2019;SDS011;1014;51.960;8.542;2022-09-25T01:48:53;32.10;;;28.83;;
2019;SDS011;1014;51.960;8.542;2022-09-25T01:51:22;30.83;;;28.53;;
2019;SDS011;1014;51.960;8.542;2022-09-25T01:53:53;31.93;;;29.07;;
2019;SDS011;1014;51.960;8.542;2022-09-25T01:56:22;30.33;;;27.70;;
2019;SDS011;1014;51.960;8.542;2022-09-25T01:58:59;29.73;;;27.20;;
2019;SDS011;1014;51.960;8.542;2022-09-25T02:01:31;29.50;;;27.03;;
2019;SDS011;1014;51.960;8.542;2022-09-25T02:04:00;28.47;;;26.23;;
2019;SDS011;1014;51.960;8.542;2022-09-25T02:06:29;29.97;;;27.23;;
2019;SDS011;1014;51.960;8.542;2022-09-25T02:08:58;28.80;;;26.57;;
2019;SDS011;1014;51.960;8.542;2022-09-25T02:11:28;29.20;;;26.60;;
2019;SDS011;1014;51.960;8.542;2022-09-25T02:13:57;27.73;;;25.53;;
2019;SDS011;1014;51.960;8.542;2022-09-25T02:16:26;30.47;;;27.90;;
2019;SDS011;1014;51.960;8.542;2022-09-25T02:18:54;28.80;;;26.50;;
2019;SDS011;1014;51.960;8.542;2022-09-25T02:21:41;28.07;;;26.07;;
2019;SDS011;1014;51.960;8.542;2022-09-25T02:24:13;30.13;;;27.83;;
2019;SDS011;1014;51.960;8.542;2022-09-25T02:26:42;29.37;;;26.87;;
2019;SDS011;1014;51.960;8.542;2022-09-25T02:29:09;31.30;;;28.20;;
2019;SDS011;1014;51.960;8.542;2022-09-25T02:31:40;29.33;;;26.93;;
2019;SDS011;1014;51.960;8.542;2022-09-25T02:34:08;29.60;;;27.13;;
2019;SDS011;1014;51.960;8.542;2022-09-25T02:36:36;30.13;;;27.63;;
2019;SDS011;1014;51.960;8.542;2022-09-25T02:39:04;28.40;;;26.30;;
2019;SDS011;1014;51.960;8.542;2022-09-25T02:44:27;33.00;;;30.30;;
2019;SDS011;1014;51.960;8.542;2022-09-25T02:47:02;32.00;;;29.10;;
2019;SDS011;1014;51.960;8.542;2022-09-25T02:49:34;34.37;;;31.23;;
2019;SDS011;1014;51.960;8.542;2022-09-25T02:52:03;33.73;;;30.80;;
2019;SDS011;1014;51.960;8.542;2022-09-25T02:54:33;33.87;;;30.27;;
2019;SDS011;1014;51.960;8.542;2022-09-25T02:57:03;33.03;;;30.07;;
2019;SDS011;1014;51.960;8.542;2022-09-25T02:59:33;32.23;;;29.70;;
2019;SDS011;1014;51.960;8.542;2022-09-25T03:02:03;30.93;;;28.53;;
2019;SDS011;1014;51.960;8.542;2022-09-25T03:04:31;31.33;;;28.27;;
2019;SDS011;1014;51.960;8.542;2022-09-25T03:07:01;31.50;;;28.63;;
2019;SDS011;1014;51.960;8.542;2022-09-25T03:09:29;31.90;;;29.30;;
2019;SDS011;1014;51.960;8.542;2022-09-25T03:11:59;32.97;;;30.33;;
2019;SDS011;1014;51.960;8.542;2022-09-25T03:14:28;31.80;;;28.90;;
2019;SDS011;1014;51.960;8.542;2022-09-25T03:16:55;32.23;;;28.97;;
2019;SDS011;1014;51.960;8.542;2022-09-25T03:19:26;30.63;;;27.77;;
2019;SDS011;1014;51.960;8.542;2022-09-25T03:21:54;29.80;;;27.60;;
2019;SDS011;1014;51.960;8.542;2022-09-25T03:24:21;28.37;;;26.40;;
2019;SDS011;1014;51.960;8.542;2022-09-25T03:26:49;30.40;;;27.93;;
2019;SDS011;1014;51.960;8.542;2022-09-25T03:29:18;28.80;;;26.60;;
2019;SDS011;1014;51.960;8.542;2022-09-25T03:31:45;31.63;;;27.90;;
2019;SDS011;1014;51.960;8.542;2022-09-25T03:34:13;31.93;;;29.53;;
2019;SDS011;1014;51.960;8.542;2022-09-25T03:36:42;28.73;;;26.63;;
2019;SDS011;1014;51.960;8.542;2022-09-25T03:39:11;32.03;;;29.47;;
2019;SDS011;1014;51.960;8.542;2022-09-25T03:41:42;31.53;;;28.50;;
2019;SDS011;1014;51.960;8.542;2022-09-25T03:44:09;28.03;;;25.83;;
2019;SDS011;1014;51.960;8.542;2022-09-25T03:46:36;29.13;;;26.93;;
2019;SDS011;1014;51.960;8.542;2022-09-25T03:49:04;28.67;;;26.27;;
2019;SDS011;1014;51.960;8.542;2022-09-25T03:51:32;28.57;;;26.27;;
2019;SDS011;1014;51.960;8.542;2022-09-25T03:54:01;28.33;;;26.10;;
2019;SDS011;1014;51.960;8.542;2022-09-25T03:56:29;27.27;;;24.97;;
2019;SDS011;1014;51.960;8.542;2022-09-25T03:58:56;28.83;;;26.63;;
2019;SDS011;1014;51.960;8.542;2022-09-25T04:01:24;30.50;;;27.73;;
2019;SDS011;1014;51.960;8.542;2022-09-25T04:03:52;28.83;;;26.73;;
2019;SDS011;1014;51.960;8.542;2022-09-25T04:06:21;29.30;;;27.10;;
2019;SDS011;1014;51.960;8.542;2022-09-25T04:08:49;27.40;;;24.80;;
2019;SDS011;1014;51.960;8.542;2022-09-25T04:11:18;27.33;;;25.43;;
2019;SDS011;1014;51.960;8.542;2022-09-25T04:13:46;28.07;;;26.00;;
2019;SDS011;1014;51.960;8.542;2022-09-25T04:16:13;26.70;;;25.00;;
2019;SDS011;1014;51.960;8.542;2022-09-25T04:18:41;27.83;;;25.07;;
2019;SDS011;1014;51.960;8.542;2022-09-25T04:21:09;26.60;;;24.53;;
2019;SDS011;1014;51.960;8.542;2022-09-25T04:23:37;25.70;;;23.37;;
2019;SDS011;1014;51.960;8.542;2022-09-25T04:26:05;25.00;;;23.30;;
2019;SDS011;1014;51.960;8.542;2022-09-25T04:28:34;24.90;;;22.87;;
2019;SDS011;1014;51.960;8.542;2022-09-25T04:31:02;25.13;;;23.17;;
2019;SDS011;1014;51.960;8.542;2022-09-25T04:33:29;25.33;;;23.50;;
2019;SDS011;1014;51.960;8.542;2022-09-25T04:36:11;25.37;;;23.40;;
2019;SDS011;1014;51.960;8.542;2022-09-25T04:38:39;25.33;;;23.63;;
2019;SDS011;1014;51.960;8.542;2022-09-25T04:41:06;27.87;;;25.57;;
2019;SDS011;1014;51.960;8.542;2022-09-25T04:43:35;26.13;;;23.70;;
2019;SDS011;1014;51.960;8.542;2022-09-25T04:46:03;25.60;;;23.70;;
2019;SDS011;1014;51.960;8.542;2022-09-25T04:48:30;24.30;;;22.47;;
2019;SDS011;1014;51.960;8.542;2022-09-25T04:50:58;23.90;;;21.90;;
2019;SDS011;1014;51.960;8.542;2022-09-25T04:53:25;24.87;;;23.17;;
2019;SDS011;1014;51.960;8.542;2022-09-25T04:55:53;24.47;;;22.53;;
2019;SDS011;1014;51.960;8.542;2022-09-25T04:58:20;23.57;;;21.90;;
2019;SDS011;1014;51.960;8.542;2022-09-25T05:00:49;25.27;;;22.93;;
2019;SDS011;1014;51.960;8.542;2022-09-25T05:03:16;23.87;;;22.30;;
2019;SDS011;1014;51.960;8.542;2022-09-25T05:05:44;24.23;;;22.13;;
2019;SDS011;1014;51.960;8.542;2022-09-25T05:08:11;23.33;;;21.43;;
2019;SDS011;1014;51.960;8.542;2022-09-25T05:10:38;23.73;;;21.83;;
2019;SDS011;1014;51.960;8.542;2022-09-25T05:13:06;24.23;;;22.40;;
2019;SDS011;1014;51.960;8.542;2022-09-25T05:15:36;22.33;;;21.03;;
2019;SDS011;1014;51.960;8.542;2022-09-25T05:18:06;22.17;;;20.77;;
2019;SDS011;1014;51.960;8.542;2022-09-25T05:20:34;23.13;;;21.83;;
2019;SDS011;1014;51.960;8.542;2022-09-25T05:23:01;23.77;;;21.43;;
2019;SDS011;1014;51.960;8.542;2022-09-25T05:25:28;22.03;;;20.17;;
2019;SDS011;1014;51.960;8.542;2022-09-25T05:27:56;21.53;;;19.73;;
2019;SDS011;1014;51.960;8.542;2022-09-25T05:30:24;21.20;;;19.87;;
2019;SDS011;1014;51.960;8.542;2022-09-25T05:32:52;22.97;;;21.30;;
2019;SDS011;1014;51.960;8.542;2022-09-25T05:35:24;23.20;;;21.30;;
2019;SDS011;1014;51.960;8.542;2022-09-25T05:37:51;22.37;;;20.83;;
2019;SDS011;1014;51.960;8.542;2022-09-25T05:40:18;23.00;;;21.03;;
2019;SDS011;1014;51.960;8.542;2022-09-25T05:42:47;22.40;;;20.27;;
2019;SDS011;1014;51.960;8.542;2022-09-25T05:45:16;20.97;;;19.37;;
2019;SDS011;1014;51.960;8.542;2022-09-25T05:47:44;23.37;;;21.33;;
2019;SDS011;1014;51.960;8.542;2022-09-25T05:50:12;21.63;;;20.20;;
2019;SDS011;1014;51.960;8.542;2022-09-25T05:52:41;22.57;;;21.10;;
2019;SDS011;1014;51.960;8.542;2022-09-25T05:55:08;22.73;;;20.70;;
2019;SDS011;1014;51.960;8.542;2022-09-25T05:57:36;20.53;;;19.27;;
2019;SDS011;1014;51.960;8.542;2022-09-25T06:00:04;20.17;;;18.73;;
2019;SDS011;1014;51.960;8.542;2022-09-25T06:02:32;21.27;;;19.67;;
2019;SDS011;1014;51.960;8.542;2022-09-25T06:05:00;21.13;;;19.37;;
2019;SDS011;1014;51.960;8.542;2022-09-25T06:07:28;19.60;;;18.30;;
2019;SDS011;1014;51.960;8.542;2022-09-25T06:09:57;21.13;;;19.40;;
2019;SDS011;1014;51.960;8.542;2022-09-25T06:12:24;21.33;;;19.77;;
2019;SDS011;1014;51.960;8.542;2022-09-25T06:14:51;19.87;;;18.37;;
2019;SDS011;1014;51.960;8.542;2022-09-25T06:17:19;21.87;;;20.20;;
2019;SDS011;1014;51.960;8.542;2022-09-25T06:19:47;21.90;;;19.90;;
2019;SDS011;1014;51.960;8.542;2022-09-25T06:22:14;20.17;;;18.73;;
2019;SDS011;1014;51.960;8.542;2022-09-25T06:24:41;20.00;;;18.80;;
2019;SDS011;1014;51.960;8.542;2022-09-25T06:27:11;21.10;;;19.20;;
2019;SDS011;1014;51.960;8.542;2022-09-25T06:29:38;21.77;;;20.57;;
2019;SDS011;1014;51.960;8.542;2022-09-25T06:32:05;21.00;;;19.30;;
2019;SDS011;1014;51.960;8.542;2022-09-25T06:34:34;20.90;;;19.30;;
2019;SDS011;1014;51.960;8.542;2022-09-25T06:37:01;21.27;;;19.57;;
2019;SDS011;1014;51.960;8.542;2022-09-25T06:39:29;21.20;;;19.60;;
2019;SDS011;1014;51.960;8.542;2022-09-25T06:41:57;21.03;;;19.60;;
2019;SDS011;1014;51.960;8.542;2022-09-25T06:44:26;21.37;;;19.63;;
2019;SDS011;1014;51.960;8.542;2022-09-25T06:46:53;20.70;;;18.43;;
2019;SDS011;1014;51.960;8.542;2022-09-25T06:49:20;24.50;;;22.73;;
2019;SDS011;1014;51.960;8.542;2022-09-25T06:51:48;26.53;;;24.00;;
2019;SDS011;1014;51.960;8.542;2022-09-25T06:54:16;21.70;;;20.10;;
2019;SDS011;1014;51.960;8.542;2022-09-25T06:56:46;22.43;;;20.93;;
2019;SDS011;1014;51.960;8.542;2022-09-25T06:59:15;41.90;;;38.33;;
2019;SDS011;1014;51.960;8.542;2022-09-25T07:01:44;25.40;;;23.27;;
2019;SDS011;1014;51.960;8.542;2022-09-25T07:04:11;30.13;;;28.00;;
2019;SDS011;1014;51.960;8.542;2022-09-25T07:06:37;23.90;;;22.30;;
2019;SDS011;1014;51.960;8.542;2022-09-25T07:09:05;22.70;;;20.93;;
2019;SDS011;1014;51.960;8.542;2022-09-25T07:11:32;23.30;;;21.70;;
2019;SDS011;1014;51.960;8.542;2022-09-25T07:14:00;21.57;;;20.23;;
2019;SDS011;1014;51.960;8.542;2022-09-25T07:16:28;22.43;;;20.97;;
2019;SDS011;1014;51.960;8.542;2022-09-25T07:18:58;23.10;;;21.50;;
2019;SDS011;1014;51.960;8.542;2022-09-25T07:21:27;22.53;;;20.77;;
2019;SDS011;1014;51.960;8.542;2022-09-25T07:23:56;22.00;;;20.60;;
2019;SDS011;1014;51.960;8.542;2022-09-25T07:26:24;22.80;;;21.10;;
2019;SDS011;1014;51.960;8.542;2022-09-25T07:28:52;22.30;;;20.40;;
2019;SDS011;1014;51.960;8.542;2022-09-25T07:31:20;22.60;;;20.93;;
2019;SDS011;1014;51.960;8.542;2022-09-25T07:33:48;22.10;;;20.80;;
2019;SDS011;1014;51.960;8.542;2022-09-25T07:36:17;23.30;;;21.50;;
2019;SDS011;1014;51.960;8.542;2022-09-25T07:38:47;22.10;;;20.70;;
2019;SDS011;1014;51.960;8.542;2022-09-25T07:41:14;24.00;;;21.30;;
2019;SDS011;1014;51.960;8.542;2022-09-25T07:43:42;21.40;;;19.60;;
2019;SDS011;1014;51.960;8.542;2022-09-25T07:46:10;20.13;;;18.83;;
2019;SDS011;1014;51.960;8.542;2022-09-25T07:48:38;22.27;;;20.43;;
2019;SDS011;1014;51.960;8.542;2022-09-25T07:51:06;34.73;;;30.90;;
2019;SDS011;1014;51.960;8.542;2022-09-25T07:53:35;24.60;;;22.33;;
2019;SDS011;1014;51.960;8.542;2022-09-25T07:56:02;27.13;;;24.53;;
2019;SDS011;1014;51.960;8.542;2022-09-25T07:58:30;23.10;;;20.33;;
2019;SDS011;1014;51.960;8.542;2022-09-25T08:00:58;21.80;;;20.60;;
2019;SDS011;1014;51.960;8.542;2022-09-25T08:03:26;22.80;;;20.70;;
2019;SDS011;1014;51.960;8.542;2022-09-25T08:05:56;22.53;;;20.40;;
2019;SDS011;1014;51.960;8.542;2022-09-25T08:08:24;22.20;;;20.53;;
2019;SDS011;1014;51.960;8.542;2022-09-25T08:10:53;22.17;;;20.53;;
2019;SDS011;1014;51.960;8.542;2022-09-25T08:13:20;20.83;;;19.23;;
2019;SDS011;1014;51.960;8.542;2022-09-25T08:15:48;21.33;;;19.37;;
2019;SDS011;1014;51.960;8.542;2022-09-25T08:18:16;23.97;;;20.93;;
2019;SDS011;1014;51.960;8.542;2022-09-25T08:20:43;25.30;;;23.10;;
2019;SDS011;1014;51.960;8.542;2022-09-25T08:23:11;21.83;;;20.30;;
2019;SDS011;1014;51.960;8.542;2022-09-25T08:25:38;20.60;;;18.77;;
2019;SDS011;1014;51.960;8.542;2022-09-25T08:28:07;21.87;;;20.13;;
2019;SDS011;1014;51.960;8.542;2022-09-25T08:30:34;23.20;;;21.00;;
2019;SDS011;1014;51.960;8.542;2022-09-25T08:33:02;21.53;;;19.60;;
2019;SDS011;1014;51.960;8.542;2022-09-25T08:35:29;21.73;;;20.23;;
2019;SDS011;1014;51.960;8.542;2022-09-25T08:37:57;19.40;;;18.20;;
2019;SDS011;1014;51.960;8.542;2022-09-25T08:40:25;21.40;;;19.53;;
2019;SDS011;1014;51.960;8.542;2022-09-25T08:42:54;20.47;;;18.93;;
2019;SDS011;1014;51.960;8.542;2022-09-25T08:45:25;20.20;;;18.77;;
2019;SDS011;1014;51.960;8.542;2022-09-25T08:48:16;20.90;;;19.40;;
2019;SDS011;1014;51.960;8.542;2022-09-25T08:51:02;22.50;;;20.53;;
2019;SDS011;1014;51.960;8.542;2022-09-25T08:53:31;19.83;;;18.43;;
2019;SDS011;1014;51.960;8.542;2022-09-25T08:56:00;19.17;;;18.07;;
2019;SDS011;1014;51.960;8.542;2022-09-25T08:58:43;19.97;;;18.67;;
2019;SDS011;1014;51.960;8.542;2022-09-25T09:01:13;20.43;;;19.30;;
2019;SDS011;1014;51.960;8.542;2022-09-25T09:03:43;19.83;;;18.27;;
2019;SDS011;1014;51.960;8.542;2022-09-25T09:06:13;20.23;;;18.80;;
2019;SDS011;1014;51.960;8.542;2022-09-25T09:08:41;19.97;;;18.60;;
2019;SDS011;1014;51.960;8.542;2022-09-25T09:11:10;20.93;;;19.30;;
2019;SDS011;1014;51.960;8.542;2022-09-25T09:13:40;21.57;;;19.80;;
2019;SDS011;1014;51.960;8.542;2022-09-25T09:16:09;19.40;;;18.07;;
2019;SDS011;1014;51.960;8.542;2022-09-25T09:18:41;19.20;;;17.93;;
2019;SDS011;1014;51.960;8.542;2022-09-25T09:21:14;18.97;;;17.97;;
2019;SDS011;1014;51.960;8.542;2022-09-25T09:23:44;18.97;;;17.77;;
2019;SDS011;1014;51.960;8.542;2022-09-25T09:26:14;19.50;;;18.40;;
2019;SDS011;1014;51.960;8.542;2022-09-25T09:28:49;19.80;;;18.40;;
2019;SDS011;1014;51.960;8.542;2022-09-25T09:31:22;17.90;;;16.67;;
2019;SDS011;1014;51.960;8.542;2022-09-25T09:33:56;17.20;;;16.00;;
2019;SDS011;1014;51.960;8.542;2022-09-25T09:36:26;17.17;;;16.07;;
2019;SDS011;1014;51.960;8.542;2022-09-25T09:38:56;16.40;;;15.57;;
2019;SDS011;1014;51.960;8.542;2022-09-25T09:41:30;15.40;;;14.60;;
2019;SDS011;1014;51.960;8.542;2022-09-25T09:44:02;16.43;;;15.40;;
2019;SDS011;1014;51.960;8.542;2022-09-25T09:46:34;16.43;;;15.43;;
2019;SDS011;1014;51.960;8.542;2022-09-25T09:49:08;16.20;;;15.20;;
2019;SDS011;1014;51.960;8.542;2022-09-25T09:51:39;16.03;;;15.23;;
2019;SDS011;1014;51.960;8.542;2022-09-25T09:54:09;16.67;;;15.30;;
2019;SDS011;1014;51.960;8.542;2022-09-25T09:56:37;16.80;;;15.90;;
2019;SDS011;1014;51.960;8.542;2022-09-25T09:59:11;16.33;;;15.53;;
2019;SDS011;1014;51.960;8.542;2022-09-25T10:01:40;16.90;;;15.47;;
2019;SDS011;1014;51.960;8.542;2022-09-25T10:04:11;16.73;;;15.83;;
2019;SDS011;1014;51.960;8.542;2022-09-25T10:06:41;16.87;;;15.73;;
2019;SDS011;1014;51.960;8.542;2022-09-25T10:09:10;17.53;;;16.33;;
2019;SDS011;1014;51.960;8.542;2022-09-25T10:11:39;17.87;;;16.57;;
2019;SDS011;1014;51.960;8.542;2022-09-25T10:14:08;17.67;;;16.47;;
2019;SDS011;1014;51.960;8.542;2022-09-25T10:16:38;18.50;;;17.40;;
2019;SDS011;1014;51.960;8.542;2022-09-25T10:19:06;19.03;;;17.67;;
2019;SDS011;1014;51.960;8.542;2022-09-25T10:21:39;18.87;;;17.77;;
2019;SDS011;1014;51.960;8.542;2022-09-25T10:24:07;18.23;;;17.23;;
2019;SDS011;1014;51.960;8.542;2022-09-25T10:26:34;20.23;;;18.97;;
2019;SDS011;1014;51.960;8.542;2022-09-25T10:29:03;19.47;;;18.00;;
2019;SDS011;1014;51.960;8.542;2022-09-25T10:31:32;17.80;;;16.80;;
2019;SDS011;1014;51.960;8.542;2022-09-25T10:34:01;18.10;;;17.17;;
2019;SDS011;1014;51.960;8.542;2022-09-25T10:36:34;19.17;;;17.70;;
2019;SDS011;1014;51.960;8.542;2022-09-25T10:39:03;17.67;;;16.47;;
2019;SDS011;1014;51.960;8.542;2022-09-25T10:41:39;18.83;;;17.67;;
2019;SDS011;1014;51.960;8.542;2022-09-25T10:44:18;19.10;;;17.80;;
2019;SDS011;1014;51.960;8.542;2022-09-25T10:46:46;18.97;;;17.67;;
2019;SDS011;1014;51.960;8.542;2022-09-25T10:49:27;19.60;;;18.40;;
2019;SDS011;1014;51.960;8.542;2022-09-25T10:52:12;20.77;;;19.10;;
2019;SDS011;1014;51.960;8.542;2022-09-25T10:54:42;20.40;;;19.10;;
2019;SDS011;1014;51.960;8.542;2022-09-25T10:57:13;19.03;;;18.03;;
2019;SDS011;1014;51.960;8.542;2022-09-25T10:59:45;18.97;;;17.83;;
2019;SDS011;1014;51.960;8.542;2022-09-25T11:02:18;20.47;;;18.90;;
2019;SDS011;1014;51.960;8.542;2022-09-25T11:04:47;20.07;;;18.70;;
2019;SDS011;1014;51.960;8.542;2022-09-25T11:07:16;18.97;;;17.97;;
2019;SDS011;1014;51.960;8.542;2022-09-25T11:09:52;18.90;;;17.50;;
2019;SDS011;1014;51.960;8.542;2022-09-25T11:12:21;19.13;;;18.03;;
2019;SDS011;1014;51.960;8.542;2022-09-25T11:14:52;20.50;;;18.63;;
2019;SDS011;1014;51.960;8.542;2022-09-25T11:17:29;19.53;;;18.33;;
2019;SDS011;1014;51.960;8.542;2022-09-25T11:20:09;19.47;;;18.20;;
2019;SDS011;1014;51.960;8.542;2022-09-25T11:22:38;19.77;;;18.67;;
2019;SDS011;1014;51.960;8.542;2022-09-25T11:25:10;19.10;;;17.90;;
2019;SDS011;1014;51.960;8.542;2022-09-25T11:27:41;18.80;;;17.80;;
2019;SDS011;1014;51.960;8.542;2022-09-25T11:30:09;18.60;;;17.40;;
2019;SDS011;1014;51.960;8.542;2022-09-25T11:32:39;18.67;;;17.47;;
2019;SDS011;1014;51.960;8.542;2022-09-25T11:35:17;18.93;;;17.90;;
2019;SDS011;1014;51.960;8.542;2022-09-25T11:37:50;19.07;;;17.97;;
2019;SDS011;1014;51.960;8.542;2022-09-25T11:40:24;19.90;;;18.40;;
2019;SDS011;1014;51.960;8.542;2022-09-25T11:43:11;18.63;;;17.53;;
2019;SDS011;1014;51.960;8.542;2022-09-25T11:45:40;19.10;;;17.80;;
2019;SDS011;1014;51.960;8.542;2022-09-25T11:48:10;19.37;;;18.10;;
2019;SDS011;1014;51.960;8.542;2022-09-25T11:50:43;20.33;;;18.80;;
2019;SDS011;1014;51.960;8.542;2022-09-25T11:53:14;20.23;;;19.03;;
2019;SDS011;1014;51.960;8.542;2022-09-25T11:55:54;19.07;;;18.17;;
2019;SDS011;1014;51.960;8.542;2022-09-25T11:58:30;19.03;;;18.03;;
2019;SDS011;1014;51.960;8.542;2022-09-25T12:01:02;19.00;;;18.00;;
2019;SDS011;1014;51.960;8.542;2022-09-25T12:03:38;20.17;;;19.00;;
2019;SDS011;1014;51.960;8.542;2022-09-25T12:06:18;20.00;;;18.80;;
2019;SDS011;1014;51.960;8.542;2022-09-25T12:08:52;20.10;;;18.53;;
2019;SDS011;1014;51.960;8.542;2022-09-25T12:11:25;19.27;;;18.20;;
2019;SDS011;1014;51.960;8.542;2022-09-25T12:13:57;19.00;;;17.80;;
2019;SDS011;1014;51.960;8.542;2022-09-25T12:16:29;21.20;;;19.90;;
2019;SDS011;1014;51.960;8.542;2022-09-25T12:19:02;30.57;;;27.47;;
2019;SDS011;1014;51.960;8.542;2022-09-25T12:21:35;23.20;;;21.30;;
2019;SDS011;1014;51.960;8.542;2022-09-25T12:24:08;20.10;;;19.00;;
2019;SDS011;1014;51.960;8.542;2022-09-25T12:26:39;23.23;;;21.53;;
2019;SDS011;1014;51.960;8.542;2022-09-25T12:29:12;23.70;;;22.00;;
2019;SDS011;1014;51.960;8.542;2022-09-25T12:31:46;38.57;;;34.57;;
2019;SDS011;1014;51.960;8.542;2022-09-25T12:34:22;35.03;;;31.93;;
2019;SDS011;1014;51.960;8.542;2022-09-25T12:36:54;21.70;;;20.20;;
2019;SDS011;1014;51.960;8.542;2022-09-25T12:39:24;21.60;;;20.30;;
2019;SDS011;1014;51.960;8.542;2022-09-25T12:42:03;24.90;;;22.90;;
2019;SDS011;1014;51.960;8.542;2022-09-25T12:44:35;19.50;;;18.30;;
2019;SDS011;1014;51.960;8.542;2022-09-25T12:47:06;22.10;;;20.57;;
2019;SDS011;1014;51.960;8.542;2022-09-25T12:49:36;20.83;;;19.73;;
2019;SDS011;1014;51.960;8.542;2022-09-25T12:52:08;20.20;;;19.07;;
2019;SDS011;1014;51.960;8.542;2022-09-25T12:54:40;20.90;;;19.80;;
2019;SDS011;1014;51.960;8.542;2022-09-25T12:57:13;20.37;;;19.17;;
2019;SDS011;1014;51.960;8.542;2022-09-25T12:59:45;25.43;;;23.50;;
2019;SDS011;1014;51.960;8.542;2022-09-25T13:02:18;29.63;;;27.23;;
2019;SDS011;1014;51.960;8.542;2022-09-25T13:04:51;34.40;;;30.77;;
2019;SDS011;1014;51.960;8.542;2022-09-25T13:07:33;22.93;;;21.50;;
2019;SDS011;1014;51.960;8.542;2022-09-25T13:10:02;24.80;;;23.00;;
2019;SDS011;1014;51.960;8.542;2022-09-25T13:12:36;26.63;;;24.57;;
2019;SDS011;1014;51.960;8.542;2022-09-25T13:15:04;21.37;;;19.97;;
2019;SDS011;1014;51.960;8.542;2022-09-25T13:17:33;24.63;;;23.00;;
2019;SDS011;1014;51.960;8.542;2022-09-25T13:22:45;22.20;;;21.00;;
2019;SDS011;1014;51.960;8.542;2022-09-25T13:25:13;21.00;;;19.80;;
2019;SDS011;1014;51.960;8.542;2022-09-25T13:27:44;21.37;;;20.17;;
2019;SDS011;1014;51.960;8.542;2022-09-25T13:30:18;21.43;;;20.00;;
2019;SDS011;1014;51.960;8.542;2022-09-25T13:32:46;22.50;;;20.80;;
2019;SDS011;1014;51.960;8.542;2022-09-25T13:35:15;20.70;;;19.43;;
2019;SDS011;1014;51.960;8.542;2022-09-25T13:37:43;21.80;;;20.03;;
2019;SDS011;1014;51.960;8.542;2022-09-25T13:40:14;20.93;;;19.73;;
2019;SDS011;1014;51.960;8.542;2022-09-25T13:48:35;21.27;;;20.17;;
2019;SDS011;1014;51.960;8.542;2022-09-25T13:53:59;21.80;;;20.40;;
2019;SDS011;1014;51.960;8.542;2022-09-25T13:56:43;20.17;;;19.17;;
2019;SDS011;1014;51.960;8.542;2022-09-25T13:59:22;21.43;;;20.03;;
2019;SDS011;1014;51.960;8.542;2022-09-25T14:01:54;21.33;;;20.23;;
2019;SDS011;1014;51.960;8.542;2022-09-25T14:04:33;21.20;;;20.07;;
2019;SDS011;1014;51.960;8.542;2022-09-25T14:07:12;21.27;;;19.90;;
2019;SDS011;1014;51.960;8.542;2022-09-25T14:09:43;20.93;;;19.73;;
2019;SDS011;1014;51.960;8.542;2022-09-25T14:12:20;21.63;;;20.13;;
2019;SDS011;1014;51.960;8.542;2022-09-25T14:14:56;21.50;;;20.00;;
2019;SDS011;1014;51.960;8.542;2022-09-25T14:17:24;22.50;;;21.03;;
2019;SDS011;1014;51.960;8.542;2022-09-25T14:19:55;22.63;;;21.23;;
2019;SDS011;1014;51.960;8.542;2022-09-25T14:22:27;22.40;;;20.73;;
2019;SDS011;1014;51.960;8.542;2022-09-25T14:24:57;21.77;;;20.33;;
2019;SDS011;1014;51.960;8.542;2022-09-25T14:27:25;22.07;;;20.77;;
2019;SDS011;1014;51.960;8.542;2022-09-25T14:30:01;21.60;;;20.27;;
2019;SDS011;1014;51.960;8.542;2022-09-25T14:32:33;21.93;;;20.63;;
2019;SDS011;1014;51.960;8.542;2022-09-25T14:37:58;21.10;;;19.90;;
2019;SDS011;1014;51.960;8.542;2022-09-25T14:40:33;22.00;;;20.70;;
2019;SDS011;1014;51.960;8.542;2022-09-25T14:48:27;22.07;;;20.60;;
2019;SDS011;1014;51.960;8.542;2022-09-25T14:50:56;22.60;;;21.10;;
2019;SDS011;1014;51.960;8.542;2022-09-25T14:53:28;21.80;;;20.50;;
2019;SDS011;1014;51.960;8.542;2022-09-25T14:55:57;22.27;;;20.97;;
2019;SDS011;1014;51.960;8.542;2022-09-25T14:58:28;22.47;;;21.10;;
2019;SDS011;1014;51.960;8.542;2022-09-25T15:00:57;23.33;;;21.93;;
2019;SDS011;1014;51.960;8.542;2022-09-25T15:03:26;24.17;;;22.77;;
2019;SDS011;1014;51.960;8.542;2022-09-25T15:05:58;22.80;;;21.50;;
2019;SDS011;1014;51.960;8.542;2022-09-25T15:08:32;21.97;;;20.60;;
2019;SDS011;1014;51.960;8.542;2022-09-25T15:11:01;23.70;;;21.97;;
2019;SDS011;1014;51.960;8.542;2022-09-25T15:13:30;27.27;;;25.47;;
2019;SDS011;1014;51.960;8.542;2022-09-25T15:15:58;33.07;;;30.10;;
2019;SDS011;1014;51.960;8.542;2022-09-25T15:18:46;25.63;;;23.80;;
2019;SDS011;1014;51.960;8.542;2022-09-25T15:21:19;24.00;;;22.50;;
2019;SDS011;1014;51.960;8.542;2022-09-25T15:23:49;24.27;;;22.57;;
2019;SDS011;1014;51.960;8.542;2022-09-25T15:26:17;22.10;;;20.80;;
2019;SDS011;1014;51.960;8.542;2022-09-25T15:28:45;21.93;;;20.73;;